sensor_id;sensor_type;location;lat;lon;timestamp;pressure;altitude;pressure_sealevel;temperature;humidity
18504;BME280;9381;54.244;10.074;2023-04-04T00:03:32;102747.59;;;1.85;85.79
18504;BME280;9381;54.244;10.074;2023-04-04T00:08:33;102756.38;;;1.87;85.77
18504;BME280;9381;54.244;10.074;2023-04-04T00:13:33;102749.53;;;1.83;86.22
18504;BME280;9381;54.244;10.074;2023-04-04T00:18:33;102739.63;;;1.73;86.31
18504;BME280;9381;54.244;10.074;2023-04-04T00:23:33;102737.28;;;1.68;86.64
18504;BME280;9381;54.244;10.074;2023-04-04T00:28:34;102729.81;;;1.73;86.69
18504;BME280;9381;54.244;10.074;2023-04-04T00:33:34;102727.06;;;1.75;87.05
18504;BME280;9381;54.244;10.074;2023-04-04T00:38:34;102727.16;;;1.73;86.90
18504;BME280;9381;54.244;10.074;2023-04-04T00:43:35;102718.34;;;1.60;86.22
18504;BME280;9381;54.244;10.074;2023-04-04T00:48:35;102718.69;;;1.56;86.53
18504;BME280;9381;54.244;10.074;2023-04-04T00:53:36;102705.03;;;1.60;85.94
18504;BME280;9381;54.244;10.074;2023-04-04T00:58:37;102705.22;;;1.57;86.22
18504;BME280;9381;54.244;10.074;2023-04-04T01:03:38;102701.81;;;1.55;86.24
18504;BME280;9381;54.244;10.074;2023-04-04T01:08:39;102695.84;;;1.52;86.06
18504;BME280;9381;54.244;10.074;2023-04-04T01:13:39;102698.03;;;1.47;85.75
18504;BME280;9381;54.244;10.074;2023-04-04T01:18:42;102691.50;;;1.38;85.29
18504;BME280;9381;54.244;10.074;2023-04-04T01:23:57;102687.88;;;1.39;85.55
18504;BME280;9381;54.244;10.074;2023-04-04T01:28:58;102693.69;;;1.33;85.42
18504;BME280;9381;54.244;10.074;2023-04-04T01:34:12;102687.16;;;1.37;85.54
18504;BME280;9381;54.244;10.074;2023-04-04T01:39:42;102688.13;;;1.36;85.51
18504;BME280;9381;54.244;10.074;2023-04-04T01:44:43;102680.13;;;1.36;85.56
18504;BME280;9381;54.244;10.074;2023-04-04T01:49:44;102671.06;;;1.39;85.45
18504;BME280;9381;54.244;10.074;2023-04-04T01:54:45;102672.34;;;1.33;85.51
18504;BME280;9381;54.244;10.074;2023-04-04T01:59:45;102669.88;;;1.30;85.87
18504;BME280;9381;54.244;10.074;2023-04-04T02:04:45;102660.41;;;1.26;86.51
18504;BME280;9381;54.244;10.074;2023-04-04T02:09:46;102655.81;;;1.28;86.33
18504;BME280;9381;54.244;10.074;2023-04-04T02:14:47;102666.25;;;1.31;86.79
18504;BME280;9381;54.244;10.074;2023-04-04T02:19:47;102657.09;;;1.35;86.80
18504;BME280;9381;54.244;10.074;2023-04-04T02:24:48;102654.50;;;1.46;87.12
18504;BME280;9381;54.244;10.074;2023-04-04T02:29:48;102659.59;;;1.49;87.28
18504;BME280;9381;54.244;10.074;2023-04-04T02:34:49;102660.56;;;1.48;88.10
18504;BME280;9381;54.244;10.074;2023-04-04T02:39:50;102669.59;;;1.58;88.34
18504;BME280;9381;54.244;10.074;2023-04-04T02:44:50;102670.59;;;1.68;88.34
18504;BME280;9381;54.244;10.074;2023-04-04T02:49:50;102666.91;;;1.82;89.30
18504;BME280;9381;54.244;10.074;2023-04-04T02:54:51;102662.84;;;1.89;90.31
18504;BME280;9381;54.244;10.074;2023-04-04T02:59:51;102646.75;;;2.01;89.73
18504;BME280;9381;54.244;10.074;2023-04-04T03:04:51;102633.16;;;1.93;88.58
18504;BME280;9381;54.244;10.074;2023-04-04T03:09:52;102634.81;;;1.83;88.91
18504;BME280;9381;54.244;10.074;2023-04-04T03:14:52;102637.09;;;1.77;89.02
18504;BME280;9381;54.244;10.074;2023-04-04T03:19:52;102638.84;;;1.65;88.93
18504;BME280;9381;54.244;10.074;2023-04-04T03:24:53;102640.31;;;1.69;89.09
18504;BME280;9381;54.244;10.074;2023-04-04T03:29:53;102641.25;;;1.68;89.12
18504;BME280;9381;54.244;10.074;2023-04-04T03:34:54;102649.25;;;1.68;88.63
18504;BME280;9381;54.244;10.074;2023-04-04T03:39:54;102645.38;;;1.61;89.24
18504;BME280;9381;54.244;10.074;2023-04-04T03:44:54;102649.00;;;1.60;89.60
18504;BME280;9381;54.244;10.074;2023-04-04T03:49:55;102637.28;;;1.50;89.27
18504;BME280;9381;54.244;10.074;2023-04-04T03:54:55;102633.28;;;1.32;90.26
18504;BME280;9381;54.244;10.074;2023-04-04T03:59:56;102638.28;;;1.37;90.69
18504;BME280;9381;54.244;10.074;2023-04-04T04:04:56;102637.34;;;1.38;90.73
18504;BME280;9381;54.244;10.074;2023-04-04T04:09:56;102632.75;;;1.40;90.63
18504;BME280;9381;54.244;10.074;2023-04-04T04:14:56;102636.94;;;1.31;90.59
18504;BME280;9381;54.244;10.074;2023-04-04T04:19:57;102632.56;;;1.30;90.77
18504;BME280;9381;54.244;10.074;2023-04-04T04:24:57;102627.75;;;1.35;90.59
18504;BME280;9381;54.244;10.074;2023-04-04T04:29:58;102621.00;;;1.19;90.38
18504;BME280;9381;54.244;10.074;2023-04-04T04:34:58;102624.72;;;1.16;91.06
18504;BME280;9381;54.244;10.074;2023-04-04T04:39:58;102622.25;;;1.13;91.81
18504;BME280;9381;54.244;10.074;2023-04-04T04:45:00;102618.34;;;1.19;91.76
18504;BME280;9381;54.244;10.074;2023-04-04T04:50:01;102625.75;;;1.26;93.08
18504;BME280;9381;54.244;10.074;2023-04-04T04:55:01;102622.72;;;1.43;93.28
18504;BME280;9381;54.244;10.074;2023-04-04T05:00:02;102617.94;;;1.59;92.40
18504;BME280;9381;54.244;10.074;2023-04-04T05:05:03;102622.59;;;1.68;91.33
18504;BME280;9381;54.244;10.074;2023-04-04T05:10:04;102619.81;;;1.70;91.13
18504;BME280;9381;54.244;10.074;2023-04-04T05:15:05;102621.88;;;1.66;91.24
18504;BME280;9381;54.244;10.074;2023-04-04T05:20:06;102624.09;;;1.72;91.25
18504;BME280;9381;54.244;10.074;2023-04-04T05:25:08;102632.59;;;1.77;90.39
18504;BME280;9381;54.244;10.074;2023-04-04T05:30:08;102623.41;;;1.81;90.71
18504;BME280;9381;54.244;10.074;2023-04-04T05:35:09;102628.72;;;1.81;91.42
18504;BME280;9381;54.244;10.074;2023-04-04T05:40:09;102634.22;;;1.91;91.41
18504;BME280;9381;54.244;10.074;2023-04-04T05:45:10;102636.34;;;1.98;91.84
18504;BME280;9381;54.244;10.074;2023-04-04T05:50:10;102634.38;;;2.00;92.48
18504;BME280;9381;54.244;10.074;2023-04-04T05:55:10;102620.44;;;2.08;92.14
18504;BME280;9381;54.244;10.074;2023-04-04T06:00:11;102614.91;;;2.11;91.74
18504;BME280;9381;54.244;10.074;2023-04-04T06:05:12;102614.06;;;2.21;92.07
18504;BME280;9381;54.244;10.074;2023-04-04T06:10:12;102612.88;;;2.25;92.66
18504;BME280;9381;54.244;10.074;2023-04-04T06:15:13;102619.94;;;2.37;92.95
18504;BME280;9381;54.244;10.074;2023-04-04T06:20:13;102618.25;;;2.47;93.55
18504;BME280;9381;54.244;10.074;2023-04-04T06:25:13;102611.38;;;2.56;93.40
18504;BME280;9381;54.244;10.074;2023-04-04T06:30:14;102618.03;;;2.72;92.73
18504;BME280;9381;54.244;10.074;2023-04-04T06:35:16;102616.22;;;2.94;88.44
18504;BME280;9381;54.244;10.074;2023-04-04T06:40:16;102614.88;;;3.00;87.20
18504;BME280;9381;54.244;10.074;2023-04-04T06:45:16;102608.31;;;3.04;87.93
18504;BME280;9381;54.244;10.074;2023-04-04T06:50:17;102603.34;;;3.10;88.43
18504;BME280;9381;54.244;10.074;2023-04-04T06:55:17;102604.88;;;3.24;88.22
18504;BME280;9381;54.244;10.074;2023-04-04T07:00:18;102604.72;;;3.47;86.86
18504;BME280;9381;54.244;10.074;2023-04-04T07:05:18;102609.38;;;3.66;86.10
18504;BME280;9381;54.244;10.074;2023-04-04T07:10:19;102605.19;;;3.84;83.87
18504;BME280;9381;54.244;10.074;2023-04-04T07:15:20;102599.06;;;3.93;84.66
18504;BME280;9381;54.244;10.074;2023-04-04T07:20:20;102588.78;;;4.09;84.65
18504;BME280;9381;54.244;10.074;2023-04-04T07:25:21;102601.56;;;4.26;82.22
18504;BME280;9381;54.244;10.074;2023-04-04T07:30:21;102592.72;;;4.55;82.39
18504;BME280;9381;54.244;10.074;2023-04-04T07:35:25;102592.09;;;4.72;78.48
18504;BME280;9381;54.244;10.074;2023-04-04T07:40:26;102585.88;;;5.02;77.31
18504;BME280;9381;54.244;10.074;2023-04-04T07:45:26;102596.66;;;5.21;77.08
18504;BME280;9381;54.244;10.074;2023-04-04T07:50:26;102588.81;;;5.48;74.77
18504;BME280;9381;54.244;10.074;2023-04-04T07:55:26;102596.47;;;5.62;75.17
18504;BME280;9381;54.244;10.074;2023-04-04T08:00:28;102600.13;;;5.60;73.76
18504;BME280;9381;54.244;10.074;2023-04-04T08:05:28;102606.28;;;5.81;73.88
18504;BME280;9381;54.244;10.074;2023-04-04T08:10:28;102596.78;;;6.06;69.23
18504;BME280;9381;54.244;10.074;2023-04-04T08:15:29;102585.88;;;6.26;70.15
18504;BME280;9381;54.244;10.074;2023-04-04T08:20:29;102580.88;;;6.50;69.47
18504;BME280;9381;54.244;10.074;2023-04-04T08:25:30;102580.53;;;6.72;68.24
18504;BME280;9381;54.244;10.074;2023-04-04T08:30:30;102578.53;;;6.74;64.71
18504;BME280;9381;54.244;10.074;2023-04-04T08:35:31;102570.69;;;7.17;66.56
18504;BME280;9381;54.244;10.074;2023-04-04T08:40:31;102566.09;;;7.27;62.09
18504;BME280;9381;54.244;10.074;2023-04-04T08:45:32;102564.13;;;7.64;64.76
18504;BME280;9381;54.244;10.074;2023-04-04T08:50:36;102556.38;;;7.79;61.28
18504;BME280;9381;54.244;10.074;2023-04-04T08:55:38;102557.66;;;7.92;58.63
18504;BME280;9381;54.244;10.074;2023-04-04T09:00:38;102555.16;;;8.16;60.03
18504;BME280;9381;54.244;10.074;2023-04-04T09:05:42;102558.47;;;8.28;56.12
18504;BME280;9381;54.244;10.074;2023-04-04T09:10:44;102546.22;;;8.33;55.38
18504;BME280;9381;54.244;10.074;2023-04-04T09:15:50;102546.28;;;8.41;55.93
18504;BME280;9381;54.244;10.074;2023-04-04T09:20:51;102540.06;;;8.49;53.34
18504;BME280;9381;54.244;10.074;2023-04-04T09:25:53;102534.97;;;8.63;52.83
18504;BME280;9381;54.244;10.074;2023-04-04T09:30:53;102539.72;;;8.77;54.81
18504;BME280;9381;54.244;10.074;2023-04-04T09:35:56;102538.25;;;8.82;52.45
18504;BME280;9381;54.244;10.074;2023-04-04T09:40:58;102559.28;;;9.04;52.26
18504;BME280;9381;54.244;10.074;2023-04-04T09:45:59;102546.03;;;9.27;51.09
18504;BME280;9381;54.244;10.074;2023-04-04T09:51:03;102542.34;;;9.52;49.40
18504;BME280;9381;54.244;10.074;2023-04-04T09:56:04;102540.72;;;10.15;48.17
18504;BME280;9381;54.244;10.074;2023-04-04T10:01:08;102538.66;;;10.49;47.80
18504;BME280;9381;54.244;10.074;2023-04-04T10:06:09;102528.09;;;10.78;45.16
18504;BME280;9381;54.244;10.074;2023-04-04T10:11:09;102534.34;;;11.17;44.03
18504;BME280;9381;54.244;10.074;2023-04-04T10:16:10;102517.75;;;11.72;47.29
18504;BME280;9381;54.244;10.074;2023-04-04T10:21:10;102531.47;;;12.16;42.51
18504;BME280;9381;54.244;10.074;2023-04-04T10:26:11;102524.13;;;12.53;41.53
18504;BME280;9381;54.244;10.074;2023-04-04T10:31:22;102514.88;;;12.62;40.47
18504;BME280;9381;54.244;10.074;2023-04-04T10:36:23;102509.53;;;12.54;38.90
18504;BME280;9381;54.244;10.074;2023-04-04T10:41:29;102505.75;;;12.26;39.94
